sensor_id;sensor_type;location;lat;lon;timestamp;P1;durP1;ratioP1;P2;durP2;ratioP2
48550;SDS011;34397;51.176;6.738;2024-03-08T00:01:17;16.83;;;12.00;;
48550;SDS011;34397;51.176;6.738;2024-03-08T00:03:49;18.67;;;12.80;;
48550;SDS011;34397;51.176;6.738;2024-03-08T00:06:22;17.35;;;12.35;;
48550;SDS011;34397;51.176;6.738;2024-03-08T00:08:54;18.02;;;12.90;;
48550;SDS011;34397;51.176;6.738;2024-03-08T00:11:27;20.25;;;12.30;;
48550;SDS011;34397;51.176;6.738;2024-03-08T00:14:01;19.98;;;12.32;;
48550;SDS011;34397;51.176;6.738;2024-03-08T00:16:36;20.45;;;13.57;;
48550;SDS011;34397;51.176;6.738;2024-03-08T00:19:08;17.15;;;12.60;;
48550;SDS011;34397;51.176;6.738;2024-03-08T00:21:40;19.23;;;12.57;;
48550;SDS011;34397;51.176;6.738;2024-03-08T00:24:12;17.75;;;12.23;;
48550;SDS011;34397;51.176;6.738;2024-03-08T00:26:45;16.23;;;12.70;;
48550;SDS011;34397;51.176;6.738;2024-03-08T00:29:16;20.42;;;13.38;;
48550;SDS011;34397;51.176;6.738;2024-03-08T00:31:48;18.05;;;13.13;;
48550;SDS011;34397;51.176;6.738;2024-03-08T00:34:20;17.83;;;13.10;;
48550;SDS011;34397;51.176;6.738;2024-03-08T00:36:52;18.63;;;13.20;;
48550;SDS011;34397;51.176;6.738;2024-03-08T00:39:24;17.50;;;12.98;;
48550;SDS011;34397;51.176;6.738;2024-03-08T00:41:59;18.70;;;13.10;;
48550;SDS011;34397;51.176;6.738;2024-03-08T00:44:30;20.83;;;14.32;;
48550;SDS011;34397;51.176;6.738;2024-03-08T00:47:02;21.23;;;14.05;;
48550;SDS011;34397;51.176;6.738;2024-03-08T00:49:34;18.35;;;13.15;;
48550;SDS011;34397;51.176;6.738;2024-03-08T00:52:08;17.83;;;13.18;;
48550;SDS011;34397;51.176;6.738;2024-03-08T00:54:40;18.35;;;13.63;;
48550;SDS011;34397;51.176;6.738;2024-03-08T00:57:14;18.67;;;13.45;;
48550;SDS011;34397;51.176;6.738;2024-03-08T00:59:46;18.05;;;13.35;;
48550;SDS011;34397;51.176;6.738;2024-03-08T01:02:18;20.15;;;13.65;;
48550;SDS011;34397;51.176;6.738;2024-03-08T01:04:50;19.33;;;14.02;;
48550;SDS011;34397;51.176;6.738;2024-03-08T01:07:21;19.20;;;13.95;;
48550;SDS011;34397;51.176;6.738;2024-03-08T01:09:53;19.90;;;13.85;;
48550;SDS011;34397;51.176;6.738;2024-03-08T01:12:27;18.00;;;13.25;;
48550;SDS011;34397;51.176;6.738;2024-03-08T01:14:59;18.80;;;13.63;;
48550;SDS011;34397;51.176;6.738;2024-03-08T01:17:31;18.90;;;14.27;;
48550;SDS011;34397;51.176;6.738;2024-03-08T01:20:03;18.83;;;13.88;;
48550;SDS011;34397;51.176;6.738;2024-03-08T01:22:36;20.10;;;13.80;;
48550;SDS011;34397;51.176;6.738;2024-03-08T01:25:08;21.23;;;14.90;;
48550;SDS011;34397;51.176;6.738;2024-03-08T01:27:41;17.70;;;13.38;;
48550;SDS011;34397;51.176;6.738;2024-03-08T01:30:13;17.45;;;13.40;;
48550;SDS011;34397;51.176;6.738;2024-03-08T01:32:47;22.08;;;14.93;;
48550;SDS011;34397;51.176;6.738;2024-03-08T01:35:19;19.80;;;14.23;;
48550;SDS011;34397;51.176;6.738;2024-03-08T01:37:52;21.25;;;14.40;;
48550;SDS011;34397;51.176;6.738;2024-03-08T01:40:24;21.42;;;15.18;;
48550;SDS011;34397;51.176;6.738;2024-03-08T01:42:57;20.02;;;14.02;;
48550;SDS011;34397;51.176;6.738;2024-03-08T01:45:49;18.88;;;13.52;;
48550;SDS011;34397;51.176;6.738;2024-03-08T01:48:24;18.48;;;14.57;;
48550;SDS011;34397;51.176;6.738;2024-03-08T01:50:56;17.65;;;13.75;;
48550;SDS011;34397;51.176;6.738;2024-03-08T01:53:29;25.45;;;15.32;;
48550;SDS011;34397;51.176;6.738;2024-03-08T01:56:02;19.65;;;13.82;;
48550;SDS011;34397;51.176;6.738;2024-03-08T01:58:38;19.60;;;14.18;;
48550;SDS011;34397;51.176;6.738;2024-03-08T02:01:13;25.45;;;15.10;;
48550;SDS011;34397;51.176;6.738;2024-03-08T02:06:20;20.48;;;14.18;;
48550;SDS011;34397;51.176;6.738;2024-03-08T02:08:52;21.45;;;14.63;;
48550;SDS011;34397;51.176;6.738;2024-03-08T02:11:25;18.55;;;14.05;;
48550;SDS011;34397;51.176;6.738;2024-03-08T02:13:58;19.65;;;14.75;;
48550;SDS011;34397;51.176;6.738;2024-03-08T02:16:30;21.33;;;14.82;;
48550;SDS011;34397;51.176;6.738;2024-03-08T02:19:02;21.50;;;15.25;;
48550;SDS011;34397;51.176;6.738;2024-03-08T02:21:37;18.38;;;13.98;;
48550;SDS011;34397;51.176;6.738;2024-03-08T02:24:09;20.83;;;14.45;;
48550;SDS011;34397;51.176;6.738;2024-03-08T02:26:41;20.63;;;14.63;;
48550;SDS011;34397;51.176;6.738;2024-03-08T02:29:13;23.58;;;14.40;;
48550;SDS011;34397;51.176;6.738;2024-03-08T02:31:46;19.45;;;14.25;;
48550;SDS011;34397;51.176;6.738;2024-03-08T02:34:18;20.85;;;14.85;;
48550;SDS011;34397;51.176;6.738;2024-03-08T02:36:54;19.60;;;14.48;;
48550;SDS011;34397;51.176;6.738;2024-03-08T02:39:27;19.55;;;14.50;;
48550;SDS011;34397;51.176;6.738;2024-03-08T02:41:59;20.75;;;13.95;;
48550;SDS011;34397;51.176;6.738;2024-03-08T02:44:30;20.15;;;14.10;;
48550;SDS011;34397;51.176;6.738;2024-03-08T02:47:03;20.52;;;14.45;;
48550;SDS011;34397;51.176;6.738;2024-03-08T02:52:09;20.13;;;14.23;;
48550;SDS011;34397;51.176;6.738;2024-03-08T02:54:41;21.55;;;14.40;;
48550;SDS011;34397;51.176;6.738;2024-03-08T02:57:13;18.98;;;13.85;;
48550;SDS011;34397;51.176;6.738;2024-03-08T02:59:46;22.70;;;14.35;;
48550;SDS011;34397;51.176;6.738;2024-03-08T03:02:17;20.48;;;14.13;;
48550;SDS011;34397;51.176;6.738;2024-03-08T03:04:49;19.38;;;14.15;;
48550;SDS011;34397;51.176;6.738;2024-03-08T03:07:23;22.45;;;15.60;;
48550;SDS011;34397;51.176;6.738;2024-03-08T03:09:57;20.42;;;15.15;;
48550;SDS011;34397;51.176;6.738;2024-03-08T03:12:30;20.52;;;14.30;;
48550;SDS011;34397;51.176;6.738;2024-03-08T03:15:04;21.75;;;14.38;;
48550;SDS011;34397;51.176;6.738;2024-03-08T03:17:37;20.30;;;14.67;;
48550;SDS011;34397;51.176;6.738;2024-03-08T03:20:10;20.60;;;14.87;;
48550;SDS011;34397;51.176;6.738;2024-03-08T03:22:45;18.73;;;14.70;;
48550;SDS011;34397;51.176;6.738;2024-03-08T03:25:21;22.48;;;15.25;;
48550;SDS011;34397;51.176;6.738;2024-03-08T03:27:55;22.92;;;15.68;;
48550;SDS011;34397;51.176;6.738;2024-03-08T03:30:27;23.10;;;15.70;;
48550;SDS011;34397;51.176;6.738;2024-03-08T03:33:03;20.80;;;15.15;;
48550;SDS011;34397;51.176;6.738;2024-03-08T03:35:36;23.98;;;14.85;;
48550;SDS011;34397;51.176;6.738;2024-03-08T03:40:44;22.37;;;15.30;;
48550;SDS011;34397;51.176;6.738;2024-03-08T03:43:16;20.45;;;14.73;;
48550;SDS011;34397;51.176;6.738;2024-03-08T03:45:48;19.42;;;13.10;;
48550;SDS011;34397;51.176;6.738;2024-03-08T03:48:20;21.90;;;15.00;;
48550;SDS011;34397;51.176;6.738;2024-03-08T03:50:52;19.27;;;14.27;;
48550;SDS011;34397;51.176;6.738;2024-03-08T03:53:25;21.85;;;13.73;;
48550;SDS011;34397;51.176;6.738;2024-03-08T03:55:57;22.40;;;14.70;;
48550;SDS011;34397;51.176;6.738;2024-03-08T03:58:29;18.15;;;13.73;;
48550;SDS011;34397;51.176;6.738;2024-03-08T04:01:01;21.08;;;14.05;;
48550;SDS011;34397;51.176;6.738;2024-03-08T04:03:35;20.57;;;14.47;;
48550;SDS011;34397;51.176;6.738;2024-03-08T04:06:07;21.13;;;15.32;;
48550;SDS011;34397;51.176;6.738;2024-03-08T04:08:41;20.05;;;14.55;;
48550;SDS011;34397;51.176;6.738;2024-03-08T04:11:13;21.37;;;14.47;;
48550;SDS011;34397;51.176;6.738;2024-03-08T04:13:46;20.40;;;14.77;;
48550;SDS011;34397;51.176;6.738;2024-03-08T04:16:18;21.55;;;15.23;;
48550;SDS011;34397;51.176;6.738;2024-03-08T04:18:50;24.00;;;15.65;;
48550;SDS011;34397;51.176;6.738;2024-03-08T04:21:22;23.20;;;15.98;;
48550;SDS011;34397;51.176;6.738;2024-03-08T04:23:55;21.17;;;15.15;;
48550;SDS011;34397;51.176;6.738;2024-03-08T04:26:27;22.13;;;15.40;;
48550;SDS011;34397;51.176;6.738;2024-03-08T04:28:59;23.40;;;16.05;;
48550;SDS011;34397;51.176;6.738;2024-03-08T04:31:31;23.98;;;16.00;;
48550;SDS011;34397;51.176;6.738;2024-03-08T04:34:03;22.63;;;15.23;;
48550;SDS011;34397;51.176;6.738;2024-03-08T04:39:09;21.38;;;15.35;;
48550;SDS011;34397;51.176;6.738;2024-03-08T04:41:43;23.50;;;16.43;;
48550;SDS011;34397;51.176;6.738;2024-03-08T04:44:15;25.33;;;15.73;;
48550;SDS011;34397;51.176;6.738;2024-03-08T04:46:47;21.73;;;15.15;;
48550;SDS011;34397;51.176;6.738;2024-03-08T04:49:19;21.17;;;14.98;;
48550;SDS011;34397;51.176;6.738;2024-03-08T04:51:54;20.23;;;15.20;;
48550;SDS011;34397;51.176;6.738;2024-03-08T04:54:28;23.38;;;16.67;;
48550;SDS011;34397;51.176;6.738;2024-03-08T04:57:00;22.63;;;15.80;;
48550;SDS011;34397;51.176;6.738;2024-03-08T04:59:32;23.25;;;16.27;;
48550;SDS011;34397;51.176;6.738;2024-03-08T05:02:03;21.23;;;14.43;;
48550;SDS011;34397;51.176;6.738;2024-03-08T05:04:37;20.40;;;14.77;;
48550;SDS011;34397;51.176;6.738;2024-03-08T05:07:09;24.40;;;16.15;;
48550;SDS011;34397;51.176;6.738;2024-03-08T05:09:42;23.70;;;16.17;;
48550;SDS011;34397;51.176;6.738;2024-03-08T05:12:21;24.87;;;15.93;;
48550;SDS011;34397;51.176;6.738;2024-03-08T05:14:53;24.60;;;16.23;;
48550;SDS011;34397;51.176;6.738;2024-03-08T05:17:25;25.38;;;16.17;;
48550;SDS011;34397;51.176;6.738;2024-03-08T05:22:29;23.97;;;16.37;;
48550;SDS011;34397;51.176;6.738;2024-03-08T05:25:03;24.80;;;16.52;;
48550;SDS011;34397;51.176;6.738;2024-03-08T05:27:37;22.80;;;15.77;;
48550;SDS011;34397;51.176;6.738;2024-03-08T05:30:09;22.38;;;15.57;;
48550;SDS011;34397;51.176;6.738;2024-03-08T05:32:45;25.97;;;15.67;;
48550;SDS011;34397;51.176;6.738;2024-03-08T05:35:17;21.90;;;15.45;;
48550;SDS011;34397;51.176;6.738;2024-03-08T05:37:49;23.23;;;15.27;;
48550;SDS011;34397;51.176;6.738;2024-03-08T05:40:22;22.00;;;15.15;;
48550;SDS011;34397;51.176;6.738;2024-03-08T05:42:54;21.67;;;15.00;;
48550;SDS011;34397;51.176;6.738;2024-03-08T05:45:26;24.48;;;15.90;;
48550;SDS011;34397;51.176;6.738;2024-03-08T05:47:58;23.15;;;15.07;;
48550;SDS011;34397;51.176;6.738;2024-03-08T05:50:30;21.80;;;15.20;;
48550;SDS011;34397;51.176;6.738;2024-03-08T05:53:02;20.90;;;15.35;;
48550;SDS011;34397;51.176;6.738;2024-03-08T05:55:37;21.27;;;15.13;;
48550;SDS011;34397;51.176;6.738;2024-03-08T05:58:10;22.00;;;15.30;;
48550;SDS011;34397;51.176;6.738;2024-03-08T06:00:42;22.10;;;16.00;;
48550;SDS011;34397;51.176;6.738;2024-03-08T06:03:16;22.43;;;15.07;;
48550;SDS011;34397;51.176;6.738;2024-03-08T06:05:50;24.00;;;15.43;;
48550;SDS011;34397;51.176;6.738;2024-03-08T06:11:01;23.87;;;15.67;;
48550;SDS011;34397;51.176;6.738;2024-03-08T06:13:36;24.83;;;15.63;;
48550;SDS011;34397;51.176;6.738;2024-03-08T06:16:10;24.27;;;17.37;;
48550;SDS011;34397;51.176;6.738;2024-03-08T06:18:42;25.67;;;17.10;;
48550;SDS011;34397;51.176;6.738;2024-03-08T06:21:14;25.10;;;16.85;;
48550;SDS011;34397;51.176;6.738;2024-03-08T06:23:48;24.33;;;16.60;;
48550;SDS011;34397;51.176;6.738;2024-03-08T06:26:23;23.50;;;17.07;;
48550;SDS011;34397;51.176;6.738;2024-03-08T06:28:58;24.40;;;16.70;;
48550;SDS011;34397;51.176;6.738;2024-03-08T06:31:30;25.27;;;16.75;;
48550;SDS011;34397;51.176;6.738;2024-03-08T06:34:02;27.00;;;15.88;;
48550;SDS011;34397;51.176;6.738;2024-03-08T06:36:37;27.93;;;17.07;;
48550;SDS011;34397;51.176;6.738;2024-03-08T06:39:09;27.38;;;17.48;;
48550;SDS011;34397;51.176;6.738;2024-03-08T06:41:45;23.67;;;15.75;;
48550;SDS011;34397;51.176;6.738;2024-03-08T06:44:16;26.27;;;17.47;;
48550;SDS011;34397;51.176;6.738;2024-03-08T06:46:51;24.77;;;16.60;;
48550;SDS011;34397;51.176;6.738;2024-03-08T06:49:23;27.70;;;17.67;;
48550;SDS011;34397;51.176;6.738;2024-03-08T06:51:57;23.63;;;16.17;;
48550;SDS011;34397;51.176;6.738;2024-03-08T06:54:28;26.70;;;16.73;;
48550;SDS011;34397;51.176;6.738;2024-03-08T06:57:02;25.27;;;16.05;;
48550;SDS011;34397;51.176;6.738;2024-03-08T06:59:35;25.67;;;17.17;;
48550;SDS011;34397;51.176;6.738;2024-03-08T07:02:07;22.98;;;16.25;;
48550;SDS011;34397;51.176;6.738;2024-03-08T07:07:11;28.43;;;16.93;;
48550;SDS011;34397;51.176;6.738;2024-03-08T07:09:44;24.02;;;15.98;;
48550;SDS011;34397;51.176;6.738;2024-03-08T07:12:28;24.83;;;16.08;;
48550;SDS011;34397;51.176;6.738;2024-03-08T07:15:00;25.20;;;16.65;;
48550;SDS011;34397;51.176;6.738;2024-03-08T07:17:36;26.45;;;17.13;;
48550;SDS011;34397;51.176;6.738;2024-03-08T07:20:10;25.30;;;16.90;;
48550;SDS011;34397;51.176;6.738;2024-03-08T07:22:48;24.45;;;16.08;;
48550;SDS011;34397;51.176;6.738;2024-03-08T07:25:21;24.40;;;17.05;;
48550;SDS011;34397;51.176;6.738;2024-03-08T07:27:55;24.38;;;16.35;;
48550;SDS011;34397;51.176;6.738;2024-03-08T07:30:28;24.77;;;16.27;;
48550;SDS011;34397;51.176;6.738;2024-03-08T07:33:13;23.67;;;16.08;;
48550;SDS011;34397;51.176;6.738;2024-03-08T07:35:45;25.33;;;16.27;;
48550;SDS011;34397;51.176;6.738;2024-03-08T07:38:20;23.88;;;16.83;;
48550;SDS011;34397;51.176;6.738;2024-03-08T07:40:52;25.30;;;16.98;;
48550;SDS011;34397;51.176;6.738;2024-03-08T07:43:28;24.48;;;17.23;;
48550;SDS011;34397;51.176;6.738;2024-03-08T07:46:00;24.90;;;16.23;;
48550;SDS011;34397;51.176;6.738;2024-03-08T07:51:04;25.13;;;16.83;;
48550;SDS011;34397;51.176;6.738;2024-03-08T07:53:39;23.42;;;15.90;;
48550;SDS011;34397;51.176;6.738;2024-03-08T07:56:11;23.17;;;16.60;;
48550;SDS011;34397;51.176;6.738;2024-03-08T07:59:01;26.17;;;16.52;;
48550;SDS011;34397;51.176;6.738;2024-03-08T08:01:33;25.48;;;16.90;;
48550;SDS011;34397;51.176;6.738;2024-03-08T08:04:05;26.27;;;16.85;;
48550;SDS011;34397;51.176;6.738;2024-03-08T08:06:42;24.77;;;17.10;;
48550;SDS011;34397;51.176;6.738;2024-03-08T08:09:14;23.98;;;15.85;;
48550;SDS011;34397;51.176;6.738;2024-03-08T08:11:45;22.83;;;15.43;;
48550;SDS011;34397;51.176;6.738;2024-03-08T08:14:21;21.95;;;15.70;;
48550;SDS011;34397;51.176;6.738;2024-03-08T08:16:53;24.33;;;15.95;;
48550;SDS011;34397;51.176;6.738;2024-03-08T08:19:27;23.45;;;15.88;;
48550;SDS011;34397;51.176;6.738;2024-03-08T08:21:59;22.80;;;15.77;;
48550;SDS011;34397;51.176;6.738;2024-03-08T08:24:31;24.05;;;15.68;;
48550;SDS011;34397;51.176;6.738;2024-03-08T08:29:38;21.60;;;15.00;;
48550;SDS011;34397;51.176;6.738;2024-03-08T08:32:10;21.38;;;14.57;;
48550;SDS011;34397;51.176;6.738;2024-03-08T08:34:43;21.95;;;15.43;;
48550;SDS011;34397;51.176;6.738;2024-03-08T08:37:16;25.90;;;14.90;;
48550;SDS011;34397;51.176;6.738;2024-03-08T08:39:48;23.38;;;14.95;;
48550;SDS011;34397;51.176;6.738;2024-03-08T08:42:21;20.02;;;13.63;;
48550;SDS011;34397;51.176;6.738;2024-03-08T08:44:54;21.02;;;14.15;;
48550;SDS011;34397;51.176;6.738;2024-03-08T08:47:27;20.73;;;13.10;;
48550;SDS011;34397;51.176;6.738;2024-03-08T08:50:00;20.55;;;13.38;;
48550;SDS011;34397;51.176;6.738;2024-03-08T08:55:05;20.58;;;13.35;;
48550;SDS011;34397;51.176;6.738;2024-03-08T08:57:37;18.98;;;13.05;;
48550;SDS011;34397;51.176;6.738;2024-03-08T09:00:11;21.38;;;11.82;;
48550;SDS011;34397;51.176;6.738;2024-03-08T09:02:45;19.55;;;13.55;;
48550;SDS011;34397;51.176;6.738;2024-03-08T09:05:17;21.23;;;14.98;;
48550;SDS011;34397;51.176;6.738;2024-03-08T09:07:51;19.55;;;13.60;;
48550;SDS011;34397;51.176;6.738;2024-03-08T09:10:24;19.75;;;13.48;;
48550;SDS011;34397;51.176;6.738;2024-03-08T09:12:58;19.83;;;13.18;;
48550;SDS011;34397;51.176;6.738;2024-03-08T09:15:35;18.25;;;13.15;;
48550;SDS011;34397;51.176;6.738;2024-03-08T09:18:10;17.52;;;12.32;;
48550;SDS011;34397;51.176;6.738;2024-03-08T09:20:42;17.08;;;12.82;;
48550;SDS011;34397;51.176;6.738;2024-03-08T09:23:14;18.73;;;13.13;;
48550;SDS011;34397;51.176;6.738;2024-03-08T09:25:47;17.65;;;12.68;;
48550;SDS011;34397;51.176;6.738;2024-03-08T09:28:19;17.15;;;11.85;;
48550;SDS011;34397;51.176;6.738;2024-03-08T09:30:52;17.60;;;12.80;;
48550;SDS011;34397;51.176;6.738;2024-03-08T09:33:24;16.63;;;11.65;;
48550;SDS011;34397;51.176;6.738;2024-03-08T09:35:58;16.92;;;12.88;;
48550;SDS011;34397;51.176;6.738;2024-03-08T09:38:31;17.58;;;12.27;;
48550;SDS011;34397;51.176;6.738;2024-03-08T09:41:04;15.25;;;11.40;;
48550;SDS011;34397;51.176;6.738;2024-03-08T09:43:37;17.52;;;12.05;;
48550;SDS011;34397;51.176;6.738;2024-03-08T09:48:44;17.15;;;12.52;;
48550;SDS011;34397;51.176;6.738;2024-03-08T09:51:16;18.42;;;11.82;;
48550;SDS011;34397;51.176;6.738;2024-03-08T09:53:49;18.35;;;12.77;;
48550;SDS011;34397;51.176;6.738;2024-03-08T09:56:23;16.88;;;11.95;;
48550;SDS011;34397;51.176;6.738;2024-03-08T09:58:57;16.88;;;12.23;;
48550;SDS011;34397;51.176;6.738;2024-03-08T10:01:52;16.33;;;11.50;;
48550;SDS011;34397;51.176;6.738;2024-03-08T10:04:26;17.35;;;11.52;;
48550;SDS011;34397;51.176;6.738;2024-03-08T10:07:01;16.63;;;10.82;;
48550;SDS011;34397;51.176;6.738;2024-03-08T10:09:33;15.98;;;12.07;;
48550;SDS011;34397;51.176;6.738;2024-03-08T10:12:06;16.52;;;11.57;;
48550;SDS011;34397;51.176;6.738;2024-03-08T10:14:41;15.70;;;11.23;;
48550;SDS011;34397;51.176;6.738;2024-03-08T10:17:15;14.88;;;11.07;;
48550;SDS011;34397;51.176;6.738;2024-03-08T10:19:50;16.95;;;10.13;;
48550;SDS011;34397;51.176;6.738;2024-03-08T10:22:23;16.65;;;10.63;;
48550;SDS011;34397;51.176;6.738;2024-03-08T10:24:56;13.20;;;9.82;;
48550;SDS011;34397;51.176;6.738;2024-03-08T10:27:30;15.55;;;11.10;;
48550;SDS011;34397;51.176;6.738;2024-03-08T10:30:02;14.63;;;9.63;;
48550;SDS011;34397;51.176;6.738;2024-03-08T10:32:40;13.75;;;10.07;;
48550;SDS011;34397;51.176;6.738;2024-03-08T10:35:12;15.23;;;9.30;;
48550;SDS011;34397;51.176;6.738;2024-03-08T10:37:45;17.27;;;9.60;;
48550;SDS011;34397;51.176;6.738;2024-03-08T10:40:19;13.15;;;9.38;;
48550;SDS011;34397;51.176;6.738;2024-03-08T10:42:52;15.35;;;10.07;;
48550;SDS011;34397;51.176;6.738;2024-03-08T10:45:33;21.33;;;9.00;;
48550;SDS011;34397;51.176;6.738;2024-03-08T10:48:14;14.30;;;9.45;;
48550;SDS011;34397;51.176;6.738;2024-03-08T10:51:01;13.25;;;9.05;;
48550;SDS011;34397;51.176;6.738;2024-03-08T10:53:34;13.38;;;8.70;;
48550;SDS011;34397;51.176;6.738;2024-03-08T10:56:11;10.40;;;8.38;;
48550;SDS011;34397;51.176;6.738;2024-03-08T10:58:44;9.98;;;8.27;;
48550;SDS011;34397;51.176;6.738;2024-03-08T11:01:18;10.85;;;7.70;;
48550;SDS011;34397;51.176;6.738;2024-03-08T11:03:51;10.80;;;7.93;;
48550;SDS011;34397;51.176;6.738;2024-03-08T11:06:29;10.68;;;7.72;;
48550;SDS011;34397;51.176;6.738;2024-03-08T11:14:58;10.93;;;7.80;;
48550;SDS011;34397;51.176;6.738;2024-03-08T11:17:48;12.60;;;7.57;;
48550;SDS011;34397;51.176;6.738;2024-03-08T11:20:23;11.48;;;7.40;;
48550;SDS011;34397;51.176;6.738;2024-03-08T11:22:54;9.27;;;7.28;;
48550;SDS011;34397;51.176;6.738;2024-03-08T11:25:35;10.35;;;7.90;;
48550;SDS011;34397;51.176;6.738;2024-03-08T11:28:12;9.70;;;7.88;;
48550;SDS011;34397;51.176;6.738;2024-03-08T11:31:21;9.15;;;7.35;;
48550;SDS011;34397;51.176;6.738;2024-03-08T11:33:58;8.65;;;7.57;;
48550;SDS011;34397;51.176;6.738;2024-03-08T11:36:35;9.27;;;8.07;;
48550;SDS011;34397;51.176;6.738;2024-03-08T11:39:07;9.52;;;8.40;;
48550;SDS011;34397;51.176;6.738;2024-03-08T11:41:44;9.48;;;7.65;;
48550;SDS011;34397;51.176;6.738;2024-03-08T11:44:16;12.32;;;7.57;;
48550;SDS011;34397;51.176;6.738;2024-03-08T11:46:49;8.32;;;7.28;;
48550;SDS011;34397;51.176;6.738;2024-03-08T11:49:21;8.77;;;7.43;;
48550;SDS011;34397;51.176;6.738;2024-03-08T11:51:55;9.50;;;7.53;;
48550;SDS011;34397;51.176;6.738;2024-03-08T11:54:27;10.43;;;7.28;;
48550;SDS011;34397;51.176;6.738;2024-03-08T11:56:59;9.60;;;8.02;;
48550;SDS011;34397;51.176;6.738;2024-03-08T11:59:32;9.77;;;7.93;;
48550;SDS011;34397;51.176;6.738;2024-03-08T12:04:37;9.27;;;6.80;;
48550;SDS011;34397;51.176;6.738;2024-03-08T12:09:44;8.90;;;7.50;;
48550;SDS011;34397;51.176;6.738;2024-03-08T12:12:48;10.13;;;7.60;;
48550;SDS011;34397;51.176;6.738;2024-03-08T12:15:22;8.45;;;7.10;;
48550;SDS011;34397;51.176;6.738;2024-03-08T12:17:59;9.18;;;7.25;;
48550;SDS011;34397;51.176;6.738;2024-03-08T12:20:31;8.30;;;7.10;;
48550;SDS011;34397;51.176;6.738;2024-03-08T12:23:07;8.30;;;7.05;;
48550;SDS011;34397;51.176;6.738;2024-03-08T12:25:46;9.55;;;7.47;;
48550;SDS011;34397;51.176;6.738;2024-03-08T12:28:19;8.35;;;7.35;;
48550;SDS011;34397;51.176;6.738;2024-03-08T12:30:51;9.25;;;7.53;;
48550;SDS011;34397;51.176;6.738;2024-03-08T12:33:24;8.88;;;7.32;;
48550;SDS011;34397;51.176;6.738;2024-03-08T12:35:57;9.43;;;7.35;;
48550;SDS011;34397;51.176;6.738;2024-03-08T12:38:30;8.38;;;7.30;;
48550;SDS011;34397;51.176;6.738;2024-03-08T12:41:02;8.35;;;7.50;;
48550;SDS011;34397;51.176;6.738;2024-03-08T12:43:35;8.75;;;7.32;;
48550;SDS011;34397;51.176;6.738;2024-03-08T12:46:09;8.90;;;7.55;;
48550;SDS011;34397;51.176;6.738;2024-03-08T12:48:42;8.63;;;7.47;;
48550;SDS011;34397;51.176;6.738;2024-03-08T12:51:17;7.82;;;6.82;;
48550;SDS011;34397;51.176;6.738;2024-03-08T12:53:50;9.38;;;7.68;;
48550;SDS011;34397;51.176;6.738;2024-03-08T12:56:28;9.77;;;7.45;;
48550;SDS011;34397;51.176;6.738;2024-03-08T12:59:03;7.70;;;6.90;;
48550;SDS011;34397;51.176;6.738;2024-03-08T13:01:36;9.00;;;7.40;;
48550;SDS011;34397;51.176;6.738;2024-03-08T13:04:08;7.80;;;6.97;;
48550;SDS011;34397;51.176;6.738;2024-03-08T13:06:41;10.15;;;7.55;;
48550;SDS011;34397;51.176;6.738;2024-03-08T13:09:14;8.70;;;7.35;;
48550;SDS011;34397;51.176;6.738;2024-03-08T13:11:49;10.27;;;7.65;;
48550;SDS011;34397;51.176;6.738;2024-03-08T13:14:23;10.23;;;7.32;;
48550;SDS011;34397;51.176;6.738;2024-03-08T13:16:55;7.60;;;6.80;;
48550;SDS011;34397;51.176;6.738;2024-03-08T13:19:29;9.10;;;7.63;;
48550;SDS011;34397;51.176;6.738;2024-03-08T13:24:36;8.82;;;7.22;;
48550;SDS011;34397;51.176;6.738;2024-03-08T13:27:10;8.52;;;7.35;;
48550;SDS011;34397;51.176;6.738;2024-03-08T13:29:49;8.73;;;7.47;;
48550;SDS011;34397;51.176;6.738;2024-03-08T13:32:22;9.38;;;7.68;;
48550;SDS011;34397;51.176;6.738;2024-03-08T13:34:57;8.35;;;7.15;;
48550;SDS011;34397;51.176;6.738;2024-03-08T13:40:05;9.15;;;6.70;;
48550;SDS011;34397;51.176;6.738;2024-03-08T13:42:40;9.10;;;7.53;;
48550;SDS011;34397;51.176;6.738;2024-03-08T13:47:44;8.48;;;7.13;;
48550;SDS011;34397;51.176;6.738;2024-03-08T13:50:17;10.52;;;7.40;;
48550;SDS011;34397;51.176;6.738;2024-03-08T13:52:51;7.95;;;7.15;;
48550;SDS011;34397;51.176;6.738;2024-03-08T13:55:25;9.10;;;8.05;;
48550;SDS011;34397;51.176;6.738;2024-03-08T13:57:57;7.60;;;6.82;;
48550;SDS011;34397;51.176;6.738;2024-03-08T14:00:29;8.13;;;7.05;;
48550;SDS011;34397;51.176;6.738;2024-03-08T14:03:03;9.85;;;7.60;;
48550;SDS011;34397;51.176;6.738;2024-03-08T14:05:40;8.10;;;6.35;;
48550;SDS011;34397;51.176;6.738;2024-03-08T14:08:16;8.68;;;6.85;;
48550;SDS011;34397;51.176;6.738;2024-03-08T14:10:50;9.07;;;7.03;;
48550;SDS011;34397;51.176;6.738;2024-03-08T14:13:23;9.68;;;7.28;;
48550;SDS011;34397;51.176;6.738;2024-03-08T14:15:55;8.05;;;7.07;;
48550;SDS011;34397;51.176;6.738;2024-03-08T14:18:27;8.63;;;6.97;;
48550;SDS011;34397;51.176;6.738;2024-03-08T14:21:00;11.52;;;7.07;;
48550;SDS011;34397;51.176;6.738;2024-03-08T14:26:08;7.63;;;6.82;;
48550;SDS011;34397;51.176;6.738;2024-03-08T14:28:41;9.48;;;7.00;;
48550;SDS011;34397;51.176;6.738;2024-03-08T14:31:16;8.82;;;7.20;;
48550;SDS011;34397;51.176;6.738;2024-03-08T14:33:51;10.38;;;7.38;;
48550;SDS011;34397;51.176;6.738;2024-03-08T14:36:28;10.27;;;7.68;;
48550;SDS011;34397;51.176;6.738;2024-03-08T14:39:04;10.27;;;7.07;;
48550;SDS011;34397;51.176;6.738;2024-03-08T14:41:38;8.73;;;7.53;;
48550;SDS011;34397;51.176;6.738;2024-03-08T14:44:11;9.57;;;7.95;;
48550;SDS011;34397;51.176;6.738;2024-03-08T14:51:48;9.50;;;8.05;;
48550;SDS011;34397;51.176;6.738;2024-03-08T14:54:20;8.60;;;7.10;;
48550;SDS011;34397;51.176;6.738;2024-03-08T14:56:54;8.93;;;7.47;;
48550;SDS011;34397;51.176;6.738;2024-03-08T14:59:26;10.25;;;7.40;;
48550;SDS011;34397;51.176;6.738;2024-03-08T15:02:00;11.38;;;7.57;;
48550;SDS011;34397;51.176;6.738;2024-03-08T15:04:37;8.57;;;7.13;;
48550;SDS011;34397;51.176;6.738;2024-03-08T15:07:11;9.65;;;7.85;;
48550;SDS011;34397;51.176;6.738;2024-03-08T15:09:43;8.80;;;7.53;;
48550;SDS011;34397;51.176;6.738;2024-03-08T15:14:48;9.90;;;7.88;;
48550;SDS011;34397;51.176;6.738;2024-03-08T15:17:21;10.27;;;8.15;;
48550;SDS011;34397;51.176;6.738;2024-03-08T15:19:54;9.32;;;7.97;;
48550;SDS011;34397;51.176;6.738;2024-03-08T15:22:26;10.57;;;8.40;;
48550;SDS011;34397;51.176;6.738;2024-03-08T15:24:58;9.93;;;8.25;;
48550;SDS011;34397;51.176;6.738;2024-03-08T15:27:31;10.82;;;8.82;;
48550;SDS011;34397;51.176;6.738;2024-03-08T15:30:03;9.75;;;8.20;;
48550;SDS011;34397;51.176;6.738;2024-03-08T15:32:44;11.60;;;8.52;;
48550;SDS011;34397;51.176;6.738;2024-03-08T15:35:17;10.07;;;7.85;;
48550;SDS011;34397;51.176;6.738;2024-03-08T15:37:49;10.35;;;8.02;;
48550;SDS011;34397;51.176;6.738;2024-03-08T15:40:22;9.95;;;7.88;;
48550;SDS011;34397;51.176;6.738;2024-03-08T15:42:56;10.30;;;8.40;;
48550;SDS011;34397;51.176;6.738;2024-03-08T15:45:28;11.18;;;8.55;;
48550;SDS011;34397;51.176;6.738;2024-03-08T15:48:01;10.23;;;8.02;;
48550;SDS011;34397;51.176;6.738;2024-03-08T15:50:35;10.45;;;8.27;;
48550;SDS011;34397;51.176;6.738;2024-03-08T15:55:40;11.95;;;8.32;;
48550;SDS011;34397;51.176;6.738;2024-03-08T15:58:15;10.63;;;7.88;;
48550;SDS011;34397;51.176;6.738;2024-03-08T16:00:47;10.23;;;8.00;;
48550;SDS011;34397;51.176;6.738;2024-03-08T16:03:19;11.38;;;8.43;;
48550;SDS011;34397;51.176;6.738;2024-03-08T16:05:51;13.20;;;8.57;;